Terminal Aerodrome Forecast
Issued by NWS

Home | Current Version | Previous Version | Text Only | Print | Product List | Glossary On
Versions: 1 2 3 4 5 6 7 8 9 10 11 12 13 14 15 16 17 18 19 20
994
FTUS43 KIND 222328
TAFLAF
TAF
KLAF 222328Z 2300/2324 18013G18KT P6SM VCSH SCT025 BKN050
      TEMPO 2300/2302 BKN025
     FM230200 18011KT P6SM OVC015
     FM230700 22008KT 5SM SHRA VCTS OVC020CB
     FM231400 25007KT 3SM BR VCTS OVC008CB
     FM231600 27008KT 4SM BR VCTS OVC008CB
     FM231800 32008KT P6SM OVC010
      AMD LTD TO CLD VIS AND WIND 2301/2313=

USA.gov is the U.S. government's official web portal to all federal, state and local government web resources and services.